createdAt,value
2022-08-17T00:00:17.307Z,2.90
2022-08-17T00:03:10.795Z,3.10
2022-08-17T00:05:42.040Z,3.00
2022-08-17T00:08:10.113Z,2.97
2022-08-17T00:10:38.189Z,3.47
2022-08-17T00:13:07.904Z,3.53
2022-08-17T00:15:37.192Z,3.30
2022-08-17T00:19:02.047Z,3.20
2022-08-17T00:20:52.723Z,2.90
2022-08-17T00:23:20.476Z,3.00
2022-08-17T00:25:48.471Z,3.07
2022-08-17T00:28:16.948Z,3.17
2022-08-17T00:30:52.762Z,3.60
2022-08-17T00:33:23.865Z,3.23
2022-08-17T00:35:52.032Z,3.43
2022-08-17T00:38:19.802Z,2.83
2022-08-17T00:40:49.718Z,3.23
2022-08-17T00:43:21.974Z,3.47
2022-08-17T00:45:50.966Z,3.40
2022-08-17T00:48:29.424Z,3.10
2022-08-17T00:51:01.061Z,2.83
2022-08-17T00:53:30.467Z,3.03
2022-08-17T00:55:58.496Z,3.27
2022-08-17T00:58:35.869Z,3.67
2022-08-17T01:01:06.167Z,3.43
2022-08-17T01:03:34.388Z,3.37
2022-08-17T01:06:04.391Z,3.30
2022-08-17T01:08:33.376Z,3.30
2022-08-17T01:11:05.404Z,3.60
2022-08-17T01:13:41.220Z,3.40
2022-08-17T01:16:16.923Z,3.40
2022-08-17T01:18:45.785Z,3.50
2022-08-17T01:21:19.502Z,3.23
2022-08-17T01:23:48.524Z,3.90
2022-08-17T01:26:16.634Z,3.83
2022-08-17T01:28:53.865Z,3.73
2022-08-17T01:31:24.972Z,3.70
2022-08-17T01:33:52.909Z,3.70
2022-08-17T01:36:20.551Z,3.90
2022-08-17T01:38:49.584Z,3.33
2022-08-17T01:41:18.207Z,3.73
2022-08-17T01:43:48.182Z,3.83
2022-08-17T01:46:17.262Z,3.77
2022-08-17T01:48:47.452Z,3.67
2022-08-17T01:51:15.927Z,3.63
2022-08-17T01:53:51.084Z,4.07
2022-08-17T01:56:23.056Z,3.83
2022-08-17T01:58:50.926Z,3.70
2022-08-17T02:01:20.464Z,3.43
2022-08-17T02:03:59.209Z,3.60
2022-08-17T02:06:29.080Z,4.13
2022-08-17T02:09:03.296Z,3.90
2022-08-17T02:11:34.803Z,3.80
2022-08-17T02:14:04.065Z,4.03
2022-08-17T02:16:36.917Z,3.60
2022-08-17T02:19:07.918Z,3.67
2022-08-17T02:21:36.150Z,3.63
2022-08-17T02:24:04.410Z,4.00
2022-08-17T02:26:33.398Z,4.13
2022-08-17T02:29:01.029Z,4.10
2022-08-17T02:31:31.043Z,3.73
2022-08-17T02:34:04.448Z,3.83
2022-08-17T02:36:34.448Z,4.33
2022-08-17T02:39:03.099Z,3.90
2022-08-17T02:41:30.955Z,3.50
2022-08-17T02:43:59.993Z,4.07
2022-08-17T02:46:28.240Z,3.53
2022-08-17T02:48:55.901Z,3.53
2022-08-17T02:51:23.743Z,3.77
2022-08-17T02:53:51.357Z,4.00
2022-08-17T02:56:19.070Z,4.00
2022-08-17T02:58:46.751Z,4.17
2022-08-17T03:01:16.594Z,3.60
2022-08-17T03:03:44.518Z,3.90
2022-08-17T03:06:12.391Z,4.43
2022-08-17T03:08:40.578Z,3.40
2022-08-17T03:11:08.467Z,4.40
2022-08-17T03:13:36.098Z,4.10
2022-08-17T03:16:04.347Z,3.40
2022-08-17T03:18:33.277Z,4.60
2022-08-17T03:21:04.216Z,4.10
2022-08-17T03:23:32.244Z,4.00
2022-08-17T03:26:00.658Z,4.10
2022-08-17T03:28:29.283Z,3.83
2022-08-17T03:30:56.911Z,4.23
2022-08-17T03:33:24.515Z,4.27
2022-08-17T03:35:53.693Z,4.10
2022-08-17T03:38:21.845Z,4.77
2022-08-17T03:40:56.260Z,4.73
2022-08-17T03:43:28.615Z,4.47
2022-08-17T03:46:28.453Z,4.70
2022-08-17T03:49:19.352Z,6.23
2022-08-17T03:52:05.807Z,5.20
2022-08-17T03:54:51.896Z,5.30
2022-08-17T03:57:20.302Z,5.00
2022-08-17T03:59:48.048Z,4.27
2022-08-17T04:02:19.361Z,4.50
2022-08-17T04:04:47.035Z,4.40
2022-08-17T04:07:15.998Z,4.50
2022-08-17T04:09:44.226Z,3.97
2022-08-17T04:12:11.879Z,4.23
2022-08-17T04:14:53.365Z,4.53
2022-08-17T04:17:23.580Z,4.63
2022-08-17T04:19:51.220Z,5.23
2022-08-17T04:22:30.226Z,5.00
2022-08-17T04:25:01.884Z,4.97
2022-08-17T04:27:29.506Z,4.70
2022-08-17T04:29:57.299Z,5.83
2022-08-17T04:33:03.924Z,5.27
2022-08-17T04:35:12.564Z,6.23
2022-08-17T04:37:41.852Z,5.83
2022-08-17T04:40:28.211Z,5.20
2022-08-17T04:43:02.737Z,5.10
2022-08-17T04:45:31.909Z,4.43
2022-08-17T04:48:00.233Z,4.63
2022-08-17T04:50:27.930Z,4.90
2022-08-17T04:52:57.310Z,4.77
2022-08-17T04:55:25.367Z,4.90
2022-08-17T04:57:52.973Z,5.33
2022-08-17T05:00:20.807Z,4.73
2022-08-17T05:02:50.266Z,4.57
2022-08-17T05:05:20.830Z,5.40
2022-08-17T05:07:48.911Z,5.47
2022-08-17T05:10:18.092Z,5.77
2022-08-17T05:12:46.047Z,6.00
2022-08-17T05:15:16.096Z,5.70
2022-08-17T05:17:43.819Z,5.17
2022-08-17T05:20:12.035Z,5.00
2022-08-17T05:22:49.300Z,5.30
2022-08-17T05:25:22.524Z,4.87
2022-08-17T05:27:53.612Z,5.17
2022-08-17T05:30:21.485Z,4.67
2022-08-17T05:32:54.251Z,4.37
2022-08-17T05:35:22.440Z,5.53
2022-08-17T05:37:50.726Z,5.63
2022-08-17T05:40:21.677Z,4.60
2022-08-17T05:42:49.798Z,4.50
2022-08-17T05:45:39.960Z,4.90
2022-08-17T05:48:10.717Z,4.80
2022-08-17T05:50:46.481Z,4.33
2022-08-17T05:53:22.736Z,4.90
2022-08-17T05:55:59.311Z,4.57
2022-08-17T05:58:36.893Z,4.67
2022-08-17T06:01:08.898Z,4.63
2022-08-17T06:03:43.275Z,4.23
2022-08-17T06:06:25.231Z,4.93
2022-08-17T06:09:08.762Z,4.53
2022-08-17T06:11:42.186Z,4.37
2022-08-17T06:14:17.868Z,4.07
2022-08-17T06:16:47.885Z,4.77
2022-08-17T06:19:18.220Z,3.90
2022-08-17T06:21:48.064Z,4.30
2022-08-17T06:24:27.401Z,4.27
2022-08-17T06:26:58.692Z,4.00
2022-08-17T06:29:37.399Z,4.63
2022-08-17T06:32:06.108Z,4.93
2022-08-17T06:34:34.888Z,4.37
2022-08-17T06:37:10.579Z,4.10
2022-08-17T06:39:47.533Z,4.27
2022-08-17T06:43:02.055Z,4.30
2022-08-17T06:45:15.312Z,4.57
2022-08-17T06:47:47.453Z,4.27
2022-08-17T06:50:19.593Z,4.57
2022-08-17T06:52:55.255Z,4.40
2022-08-17T06:55:27.255Z,4.17
2022-08-17T06:58:02.053Z,3.80
2022-08-17T07:00:41.723Z,3.73
2022-08-17T07:03:16.346Z,3.60
2022-08-17T07:05:46.723Z,3.80
2022-08-17T07:08:19.370Z,3.60
2022-08-17T07:10:50.215Z,3.73
2022-08-17T07:13:30.915Z,3.50
2022-08-17T07:16:06.146Z,3.80
2022-08-17T07:18:34.470Z,4.07
2022-08-17T07:21:14.119Z,4.10
2022-08-17T07:23:54.061Z,4.43
2022-08-17T07:26:24.244Z,3.67
2022-08-17T07:28:54.994Z,3.80
2022-08-17T07:31:22.871Z,3.93
2022-08-17T07:34:03.486Z,3.50
2022-08-17T07:36:33.855Z,3.80
2022-08-17T07:39:03.041Z,3.30
2022-08-17T07:41:57.349Z,3.20
2022-08-17T07:44:24.749Z,3.37
2022-08-17T07:47:11.731Z,3.00
2022-08-17T07:49:42.636Z,3.30
2022-08-17T07:52:24.120Z,3.27
2022-08-17T07:55:00.931Z,3.23
2022-08-17T07:57:34.082Z,3.23
2022-08-17T08:00:16.347Z,3.10
2022-08-17T08:02:45.824Z,2.53
2022-08-17T08:05:29.995Z,2.67
2022-08-17T08:08:26.930Z,2.53
2022-08-17T08:11:09.428Z,2.20
2022-08-17T08:13:42.417Z,2.43
2022-08-17T08:16:20.919Z,2.07
2022-08-17T08:18:55.676Z,2.30
2022-08-17T08:21:33.042Z,2.07
2022-08-17T08:24:06.151Z,2.80
2022-08-17T08:26:51.311Z,2.77
2022-08-17T08:29:28.144Z,2.30
2022-08-17T08:32:01.030Z,2.63
2022-08-17T08:34:44.588Z,2.30
2022-08-17T08:37:36.672Z,2.83
2022-08-17T08:40:14.883Z,2.50
2022-08-17T08:42:49.857Z,2.60
2022-08-17T08:45:21.875Z,2.45
2022-08-17T08:48:53.432Z,2.40
2022-08-17T08:51:10.436Z,2.05
2022-08-17T08:53:46.362Z,2.03
2022-08-17T08:56:21.388Z,2.03
2022-08-17T08:58:53.274Z,2.03
2022-08-17T09:01:26.992Z,1.85
2022-08-17T09:04:21.785Z,2.30
2022-08-17T09:07:00.191Z,2.17
2022-08-17T09:09:36.731Z,2.40
2022-08-17T09:12:09.827Z,1.67
2022-08-17T09:14:46.656Z,1.80
2022-08-17T09:17:16.643Z,2.00
2022-08-17T09:19:50.479Z,2.00
2022-08-17T09:22:31.664Z,1.70
2022-08-17T09:25:06.773Z,1.90
2022-08-17T09:27:37.612Z,1.70
2022-08-17T09:30:08.883Z,1.63
2022-08-17T09:32:40.164Z,2.00
2022-08-17T09:35:13.992Z,1.92
2022-08-17T09:37:57.821Z,1.70
2022-08-17T09:40:28.641Z,2.10
2022-08-17T09:43:00.593Z,1.92
2022-08-17T09:45:32.650Z,1.48
2022-08-17T09:48:04.907Z,1.88
2022-08-17T09:51:03.388Z,3.58
2022-08-17T09:53:25.360Z,1.63
2022-08-17T09:56:06.453Z,1.80
2022-08-17T09:58:41.728Z,1.67
2022-08-17T10:01:18.195Z,1.45
2022-08-17T10:03:59.952Z,1.60
2022-08-17T10:06:32.355Z,1.70
2022-08-17T10:09:07.738Z,1.67
2022-08-17T10:11:57.581Z,1.50
2022-08-17T10:14:36.316Z,1.40
2022-08-17T10:17:13.529Z,1.63
2022-08-17T10:19:47.699Z,2.20
2022-08-17T10:22:38.827Z,1.60
2022-08-17T10:25:37.624Z,2.70
2022-08-17T10:28:20.093Z,1.58
2022-08-17T10:30:51.871Z,1.90
2022-08-17T10:33:24.446Z,1.52
2022-08-17T10:35:57.293Z,2.42
2022-08-17T10:38:32.430Z,1.70
2022-08-17T10:41:03.773Z,2.05
2022-08-17T10:43:38.418Z,1.80
2022-08-17T10:46:31.268Z,2.30
2022-08-17T10:49:23.535Z,1.92
2022-08-17T10:51:53.473Z,1.88
2022-08-17T10:54:46.872Z,2.05
2022-08-17T10:57:37.893Z,1.75
2022-08-17T11:00:14.681Z,1.88
2022-08-17T11:02:49.868Z,1.60
2022-08-17T11:05:31.693Z,1.60
2022-08-17T11:08:20.342Z,1.50
2022-08-17T11:10:58.996Z,1.65
2022-08-17T11:13:39.937Z,1.77
2022-08-17T11:16:27.294Z,1.77
2022-08-17T11:19:11.510Z,1.90
2022-08-17T11:22:03.006Z,1.55
2022-08-17T11:24:35.723Z,1.58
2022-08-17T11:27:12.176Z,1.80
2022-08-17T11:29:59.473Z,1.90
2022-08-17T11:32:36.972Z,1.60
2022-08-17T11:35:28.372Z,1.85
2022-08-17T11:38:16.100Z,1.50
2022-08-17T11:41:08.164Z,1.50
2022-08-17T11:43:55.372Z,1.52
2022-08-17T11:46:51.713Z,2.30
2022-08-17T11:49:49.291Z,1.50
2022-08-17T11:52:38.441Z,1.30
2022-08-17T11:55:31.923Z,1.52
2022-08-17T11:58:01.559Z,1.60
2022-08-17T12:00:58.305Z,1.60
2022-08-17T12:03:55.315Z,1.80
2022-08-17T12:06:42.559Z,1.60
2022-08-17T12:09:15.683Z,1.83
2022-08-17T12:11:58.683Z,1.60
2022-08-17T12:15:08.516Z,1.75
2022-08-17T12:17:40.938Z,1.45
2022-08-17T12:20:14.768Z,1.63
2022-08-17T12:22:54.814Z,1.80
2022-08-17T12:25:25.891Z,1.30
2022-08-17T12:28:06.401Z,1.60
2022-08-17T12:30:35.626Z,1.30
2022-08-17T12:33:05.218Z,1.48
2022-08-17T12:35:35.196Z,1.40
2022-08-17T12:38:04.409Z,4.43
2022-08-17T12:40:33.442Z,1.50
2022-08-17T12:43:02.916Z,1.88
2022-08-17T12:45:33.580Z,1.75
2022-08-17T12:48:02.641Z,1.58
2022-08-17T12:50:32.246Z,1.73
2022-08-17T12:53:02.528Z,1.45
2022-08-17T12:55:32.683Z,1.67
2022-08-17T12:58:02.265Z,1.83
2022-08-17T13:00:32.245Z,1.70
2022-08-17T13:03:01.900Z,1.15
2022-08-17T13:05:34.019Z,1.92
2022-08-17T13:08:04.411Z,1.65
2022-08-17T13:10:36.004Z,1.45
2022-08-17T13:13:21.905Z,1.30
2022-08-17T13:15:53.944Z,1.20
2022-08-17T13:18:40.793Z,1.38
2022-08-17T13:21:13.934Z,1.70
2022-08-17T13:23:44.790Z,1.33
2022-08-17T13:26:27.667Z,1.30
2022-08-17T13:28:55.442Z,1.30
2022-08-17T13:31:25.110Z,1.17
2022-08-17T13:33:52.744Z,1.15
2022-08-17T13:36:32.058Z,1.30
2022-08-17T13:39:09.040Z,1.48
2022-08-17T13:41:38.821Z,1.38
2022-08-17T13:44:31.162Z,1.10
2022-08-17T13:47:00.254Z,1.33
2022-08-17T13:49:48.546Z,1.95
2022-08-17T13:55:18.836Z,1.52
2022-08-17T13:57:47.169Z,1.50
2022-08-17T14:00:20.180Z,1.52
2022-08-17T14:02:47.772Z,1.42
2022-08-17T14:05:15.833Z,1.67
2022-08-17T14:07:43.516Z,1.50
2022-08-17T14:10:15.547Z,1.63
2022-08-17T14:12:45.195Z,2.05
2022-08-17T14:15:14.357Z,1.58
2022-08-17T14:17:42.005Z,1.35
2022-08-17T14:20:12.090Z,1.30
2022-08-17T14:22:42.104Z,1.48
2022-08-17T14:25:10.502Z,1.50
2022-08-17T14:27:43.513Z,1.63
2022-08-17T14:30:22.292Z,1.63
2022-08-17T14:32:51.778Z,1.10
2022-08-17T14:35:21.864Z,1.20
2022-08-17T14:37:49.674Z,1.40
2022-08-17T14:40:20.404Z,1.30
2022-08-17T14:42:49.825Z,1.33
2022-08-17T14:45:31.640Z,1.20
2022-08-17T14:48:01.587Z,1.52
2022-08-17T14:50:29.345Z,1.60
2022-08-17T14:52:58.136Z,1.60
2022-08-17T14:55:26.859Z,1.45
2022-08-17T14:57:55.792Z,1.40
2022-08-17T15:00:23.629Z,1.23
2022-08-17T15:02:54.606Z,1.30
2022-08-17T15:05:24.523Z,1.50
2022-08-17T15:07:53.287Z,1.33
2022-08-17T15:10:21.595Z,1.65
2022-08-17T15:12:49.592Z,1.40
2022-08-17T15:15:18.957Z,1.20
2022-08-17T15:17:46.877Z,1.48
2022-08-17T15:20:18.191Z,1.38
2022-08-17T15:22:49.338Z,1.88
2022-08-17T15:25:17.645Z,1.92
2022-08-17T15:27:45.335Z,1.73
2022-08-17T15:30:14.781Z,1.50
2022-08-17T15:32:45.670Z,1.38
2022-08-17T15:35:22.036Z,1.70
2022-08-17T15:37:56.465Z,1.27
2022-08-17T15:40:25.158Z,1.85
2022-08-17T15:42:53.046Z,1.80
2022-08-17T15:45:24.558Z,1.55
2022-08-17T15:47:53.642Z,1.75
2022-08-17T15:50:21.302Z,2.13
2022-08-17T15:52:55.626Z,1.65
2022-08-17T15:55:24.243Z,1.75
2022-08-17T15:57:53.032Z,1.88
2022-08-17T16:00:23.567Z,1.40
2022-08-17T16:03:46.467Z,1.60
2022-08-17T16:05:41.071Z,1.90
2022-08-17T16:08:10.939Z,1.60
2022-08-17T16:10:39.000Z,1.40
2022-08-17T16:13:17.560Z,1.73
2022-08-17T16:15:51.056Z,1.35
2022-08-17T16:18:26.369Z,1.63
2022-08-17T16:20:55.708Z,1.95
2022-08-17T16:23:24.347Z,2.20
2022-08-17T16:25:53.006Z,2.40
2022-08-17T16:28:22.564Z,1.80
2022-08-17T16:31:03.222Z,1.80
2022-08-17T16:33:30.801Z,1.67
2022-08-17T16:35:59.788Z,1.83
2022-08-17T16:38:27.520Z,1.70
2022-08-17T16:40:55.136Z,1.40
2022-08-17T16:43:23.052Z,1.77
2022-08-17T16:45:52.242Z,2.05
2022-08-17T16:48:20.010Z,1.92
2022-08-17T16:50:59.974Z,1.90
2022-08-17T16:53:33.199Z,2.03
2022-08-17T16:56:01.001Z,2.10
2022-08-17T16:58:29.028Z,1.52
2022-08-17T17:00:59.482Z,2.40
2022-08-17T17:03:28.833Z,2.83
2022-08-17T17:06:03.650Z,3.25
2022-08-17T17:08:43.626Z,2.78
2022-08-17T17:11:14.917Z,2.97
2022-08-17T17:13:46.770Z,2.83
2022-08-17T17:16:20.728Z,2.55
2022-08-17T17:18:59.086Z,3.10
2022-08-17T17:21:32.785Z,4.03
